sensor_id;sensor_type;location;lat;lon;timestamp;P1;durP1;ratioP1;P2;durP2;ratioP2
57389;SDS011;43217;52.694;6.214;2023-03-01T00:00:37;26.70;;;23.85;;
57389;SDS011;43217;52.694;6.214;2023-03-01T00:03:02;26.20;;;23.50;;
57389;SDS011;43217;52.694;6.214;2023-03-01T00:05:28;24.50;;;22.20;;
57389;SDS011;43217;52.694;6.214;2023-03-01T00:07:54;27.63;;;24.75;;
57389;SDS011;43217;52.694;6.214;2023-03-01T00:10:19;26.85;;;23.80;;
57389;SDS011;43217;52.694;6.214;2023-03-01T00:12:45;26.58;;;23.73;;
57389;SDS011;43217;52.694;6.214;2023-03-01T00:15:11;28.02;;;25.05;;
57389;SDS011;43217;52.694;6.214;2023-03-01T00:17:37;27.60;;;24.80;;
57389;SDS011;43217;52.694;6.214;2023-03-01T00:20:03;26.40;;;23.70;;
57389;SDS011;43217;52.694;6.214;2023-03-01T00:22:32;28.05;;;24.73;;
57389;SDS011;43217;52.694;6.214;2023-03-01T00:24:58;27.00;;;23.98;;
57389;SDS011;43217;52.694;6.214;2023-03-01T00:27:24;29.02;;;25.17;;
57389;SDS011;43217;52.694;6.214;2023-03-01T00:29:49;26.85;;;23.95;;
57389;SDS011;43217;52.694;6.214;2023-03-01T00:32:16;26.73;;;24.02;;
57389;SDS011;43217;52.694;6.214;2023-03-01T00:34:42;27.10;;;24.20;;
57389;SDS011;43217;52.694;6.214;2023-03-01T00:37:07;27.27;;;24.35;;
57389;SDS011;43217;52.694;6.214;2023-03-01T00:39:33;28.00;;;25.02;;
57389;SDS011;43217;52.694;6.214;2023-03-01T00:41:59;26.52;;;23.75;;
57389;SDS011;43217;52.694;6.214;2023-03-01T00:44:24;27.90;;;24.55;;
57389;SDS011;43217;52.694;6.214;2023-03-01T00:46:50;27.70;;;24.80;;
57389;SDS011;43217;52.694;6.214;2023-03-01T00:49:16;28.10;;;25.08;;
57389;SDS011;43217;52.694;6.214;2023-03-01T00:51:41;28.13;;;24.95;;
57389;SDS011;43217;52.694;6.214;2023-03-01T00:54:07;29.90;;;25.77;;
57389;SDS011;43217;52.694;6.214;2023-03-01T00:56:34;30.20;;;27.15;;
57389;SDS011;43217;52.694;6.214;2023-03-01T00:59:00;29.70;;;26.55;;
57389;SDS011;43217;52.694;6.214;2023-03-01T01:01:27;29.65;;;26.45;;
57389;SDS011;43217;52.694;6.214;2023-03-01T01:03:56;29.80;;;26.48;;
57389;SDS011;43217;52.694;6.214;2023-03-01T01:06:25;31.20;;;27.88;;
57389;SDS011;43217;52.694;6.214;2023-03-01T01:08:53;34.83;;;27.38;;
57389;SDS011;43217;52.694;6.214;2023-03-01T01:11:22;31.52;;;28.23;;
57389;SDS011;43217;52.694;6.214;2023-03-01T01:13:49;31.60;;;27.92;;
57389;SDS011;43217;52.694;6.214;2023-03-01T01:16:15;30.85;;;27.58;;
57389;SDS011;43217;52.694;6.214;2023-03-01T01:18:42;30.95;;;27.75;;
57389;SDS011;43217;52.694;6.214;2023-03-01T01:21:10;31.75;;;28.42;;
57389;SDS011;43217;52.694;6.214;2023-03-01T01:23:37;33.25;;;29.33;;
57389;SDS011;43217;52.694;6.214;2023-03-01T01:26:08;32.00;;;28.20;;
57389;SDS011;43217;52.694;6.214;2023-03-01T01:28:36;34.35;;;29.77;;
57389;SDS011;43217;52.694;6.214;2023-03-01T01:31:01;31.70;;;28.00;;
57389;SDS011;43217;52.694;6.214;2023-03-01T01:33:29;33.00;;;28.52;;
57389;SDS011;43217;52.694;6.214;2023-03-01T01:35:55;35.88;;;29.42;;
57389;SDS011;43217;52.694;6.214;2023-03-01T01:38:21;31.85;;;28.42;;
57389;SDS011;43217;52.694;6.214;2023-03-01T01:40:47;35.88;;;29.20;;
57389;SDS011;43217;52.694;6.214;2023-03-01T01:43:24;32.95;;;29.08;;
57389;SDS011;43217;52.694;6.214;2023-03-01T01:45:52;34.10;;;29.42;;
57389;SDS011;43217;52.694;6.214;2023-03-01T01:48:23;34.10;;;29.75;;
57389;SDS011;43217;52.694;6.214;2023-03-01T01:51:05;37.42;;;31.15;;
57389;SDS011;43217;52.694;6.214;2023-03-01T01:53:35;34.53;;;30.55;;
57389;SDS011;43217;52.694;6.214;2023-03-01T01:56:03;38.20;;;31.30;;
57389;SDS011;43217;52.694;6.214;2023-03-01T01:58:33;34.88;;;31.08;;
57389;SDS011;43217;52.694;6.214;2023-03-01T02:00:59;36.25;;;32.30;;
57389;SDS011;43217;52.694;6.214;2023-03-01T02:03:27;35.87;;;31.87;;
57389;SDS011;43217;52.694;6.214;2023-03-01T02:06:05;37.28;;;29.95;;
57389;SDS011;43217;52.694;6.214;2023-03-01T02:08:37;36.97;;;29.45;;
57389;SDS011;43217;52.694;6.214;2023-03-01T02:11:06;37.30;;;30.50;;
57389;SDS011;43217;52.694;6.214;2023-03-01T02:13:33;37.15;;;30.65;;
57389;SDS011;43217;52.694;6.214;2023-03-01T02:16:05;37.10;;;30.85;;
57389;SDS011;43217;52.694;6.214;2023-03-01T02:18:34;36.67;;;31.20;;
57389;SDS011;43217;52.694;6.214;2023-03-01T02:21:05;36.22;;;29.30;;
57389;SDS011;43217;52.694;6.214;2023-03-01T02:23:39;35.47;;;30.50;;
57389;SDS011;43217;52.694;6.214;2023-03-01T02:28:38;37.40;;;31.63;;
57389;SDS011;43217;52.694;6.214;2023-03-01T02:33:50;46.80;;;34.70;;
57389;SDS011;43217;52.694;6.214;2023-03-01T02:36:18;48.58;;;35.33;;
57389;SDS011;43217;52.694;6.214;2023-03-01T02:38:46;52.30;;;34.33;;
57389;SDS011;43217;52.694;6.214;2023-03-01T02:41:13;84.95;;;39.03;;
57389;SDS011;43217;52.694;6.214;2023-03-01T02:43:41;106.93;;;39.42;;
57389;SDS011;43217;52.694;6.214;2023-03-01T02:46:12;114.60;;;41.63;;
57389;SDS011;43217;52.694;6.214;2023-03-01T02:48:51;203.50;;;49.78;;
57389;SDS011;43217;52.694;6.214;2023-03-01T02:54:06;123.10;;;41.25;;
57389;SDS011;43217;52.694;6.214;2023-03-01T02:57:09;63.33;;;34.53;;
57389;SDS011;43217;52.694;6.214;2023-03-01T02:59:35;76.75;;;34.90;;
57389;SDS011;43217;52.694;6.214;2023-03-01T03:02:04;105.25;;;40.65;;
57389;SDS011;43217;52.694;6.214;2023-03-01T03:04:31;55.07;;;32.67;;
57389;SDS011;43217;52.694;6.214;2023-03-01T03:06:57;58.63;;;34.92;;
57389;SDS011;43217;52.694;6.214;2023-03-01T03:09:22;50.03;;;32.08;;
57389;SDS011;43217;52.694;6.214;2023-03-01T03:11:48;58.00;;;34.70;;
57389;SDS011;43217;52.694;6.214;2023-03-01T03:14:14;57.55;;;35.20;;
57389;SDS011;43217;52.694;6.214;2023-03-01T03:16:41;47.90;;;32.83;;
57389;SDS011;43217;52.694;6.214;2023-03-01T03:19:08;42.15;;;32.22;;
57389;SDS011;43217;52.694;6.214;2023-03-01T03:21:35;45.63;;;32.72;;
57389;SDS011;43217;52.694;6.214;2023-03-01T03:24:01;41.25;;;31.10;;
57389;SDS011;43217;52.694;6.214;2023-03-01T03:26:27;38.85;;;31.80;;
57389;SDS011;43217;52.694;6.214;2023-03-01T03:28:52;42.22;;;31.48;;
57389;SDS011;43217;52.694;6.214;2023-03-01T03:31:18;41.42;;;31.35;;
57389;SDS011;43217;52.694;6.214;2023-03-01T03:33:43;70.88;;;36.60;;
57389;SDS011;43217;52.694;6.214;2023-03-01T03:36:09;48.97;;;32.80;;
57389;SDS011;43217;52.694;6.214;2023-03-01T03:38:42;59.08;;;34.72;;
57389;SDS011;43217;52.694;6.214;2023-03-01T03:41:08;48.35;;;32.70;;
57389;SDS011;43217;52.694;6.214;2023-03-01T03:43:35;51.03;;;33.97;;
57389;SDS011;43217;52.694;6.214;2023-03-01T03:46:02;48.83;;;33.00;;
57389;SDS011;43217;52.694;6.214;2023-03-01T03:48:34;38.75;;;32.10;;
57389;SDS011;43217;52.694;6.214;2023-03-01T03:51:04;38.40;;;31.60;;
57389;SDS011;43217;52.694;6.214;2023-03-01T03:53:31;48.20;;;32.80;;
57389;SDS011;43217;52.694;6.214;2023-03-01T03:55:57;37.45;;;31.08;;
57389;SDS011;43217;52.694;6.214;2023-03-01T03:58:23;45.97;;;31.58;;
57389;SDS011;43217;52.694;6.214;2023-03-01T04:00:51;53.20;;;33.20;;
57389;SDS011;43217;52.694;6.214;2023-03-01T04:03:18;40.92;;;31.90;;
57389;SDS011;43217;52.694;6.214;2023-03-01T04:05:45;37.30;;;30.63;;
57389;SDS011;43217;52.694;6.214;2023-03-01T04:08:11;34.03;;;29.75;;
57389;SDS011;43217;52.694;6.214;2023-03-01T04:10:44;36.10;;;31.02;;
57389;SDS011;43217;52.694;6.214;2023-03-01T04:13:16;37.08;;;30.33;;
57389;SDS011;43217;52.694;6.214;2023-03-01T04:15:45;57.05;;;33.67;;
57389;SDS011;43217;52.694;6.214;2023-03-01T04:18:15;38.45;;;30.58;;
57389;SDS011;43217;52.694;6.214;2023-03-01T04:20:42;78.32;;;34.08;;
57389;SDS011;43217;52.694;6.214;2023-03-01T04:23:10;38.15;;;30.20;;
57389;SDS011;43217;52.694;6.214;2023-03-01T04:25:38;56.63;;;32.78;;
57389;SDS011;43217;52.694;6.214;2023-03-01T04:28:10;50.70;;;32.47;;
57389;SDS011;43217;52.694;6.214;2023-03-01T04:30:37;64.53;;;31.60;;
57389;SDS011;43217;52.694;6.214;2023-03-01T04:33:04;55.97;;;30.05;;
57389;SDS011;43217;52.694;6.214;2023-03-01T04:35:32;170.27;;;42.22;;
57389;SDS011;43217;52.694;6.214;2023-03-01T04:37:57;57.15;;;31.95;;
57389;SDS011;43217;52.694;6.214;2023-03-01T04:40:23;96.25;;;36.22;;
57389;SDS011;43217;52.694;6.214;2023-03-01T04:42:50;88.30;;;32.92;;
57389;SDS011;43217;52.694;6.214;2023-03-01T04:45:15;57.03;;;27.50;;
57389;SDS011;43217;52.694;6.214;2023-03-01T04:47:42;151.68;;;39.05;;
57389;SDS011;43217;52.694;6.214;2023-03-01T04:50:10;46.58;;;30.10;;
57389;SDS011;43217;52.694;6.214;2023-03-01T04:52:36;66.50;;;30.38;;
57389;SDS011;43217;52.694;6.214;2023-03-01T04:55:02;41.97;;;29.48;;
57389;SDS011;43217;52.694;6.214;2023-03-01T04:57:29;55.53;;;30.70;;
57389;SDS011;43217;52.694;6.214;2023-03-01T04:59:55;43.65;;;29.77;;
57389;SDS011;43217;52.694;6.214;2023-03-01T05:02:21;42.35;;;29.83;;
57389;SDS011;43217;52.694;6.214;2023-03-01T05:04:46;36.17;;;29.58;;
57389;SDS011;43217;52.694;6.214;2023-03-01T05:07:12;38.40;;;30.58;;
57389;SDS011;43217;52.694;6.214;2023-03-01T05:09:46;39.25;;;31.60;;
57389;SDS011;43217;52.694;6.214;2023-03-01T05:12:12;36.25;;;31.65;;
57389;SDS011;43217;52.694;6.214;2023-03-01T05:14:38;36.72;;;30.58;;
57389;SDS011;43217;52.694;6.214;2023-03-01T05:17:05;34.67;;;30.13;;
57389;SDS011;43217;52.694;6.214;2023-03-01T05:19:31;33.58;;;29.92;;
57389;SDS011;43217;52.694;6.214;2023-03-01T05:21:58;34.55;;;30.77;;
57389;SDS011;43217;52.694;6.214;2023-03-01T05:24:27;34.00;;;30.38;;
57389;SDS011;43217;52.694;6.214;2023-03-01T05:26:53;31.40;;;28.02;;
57389;SDS011;43217;52.694;6.214;2023-03-01T05:29:20;31.25;;;27.42;;
57389;SDS011;43217;52.694;6.214;2023-03-01T05:31:53;30.00;;;26.88;;
57389;SDS011;43217;52.694;6.214;2023-03-01T05:34:23;30.05;;;26.95;;
57389;SDS011;43217;52.694;6.214;2023-03-01T05:36:53;29.20;;;26.10;;
57389;SDS011;43217;52.694;6.214;2023-03-01T05:39:20;28.33;;;25.38;;
57389;SDS011;43217;52.694;6.214;2023-03-01T05:41:47;28.30;;;25.35;;
57389;SDS011;43217;52.694;6.214;2023-03-01T05:44:13;27.27;;;24.45;;
57389;SDS011;43217;52.694;6.214;2023-03-01T05:46:39;27.90;;;25.08;;
57389;SDS011;43217;52.694;6.214;2023-03-01T05:49:05;27.65;;;24.80;;
57389;SDS011;43217;52.694;6.214;2023-03-01T05:51:31;27.33;;;24.55;;
57389;SDS011;43217;52.694;6.214;2023-03-01T05:53:57;26.80;;;24.10;;
57389;SDS011;43217;52.694;6.214;2023-03-01T05:56:23;26.08;;;23.52;;
57389;SDS011;43217;52.694;6.214;2023-03-01T05:58:48;24.70;;;22.30;;
57389;SDS011;43217;52.694;6.214;2023-03-01T06:01:14;26.65;;;24.05;;
57389;SDS011;43217;52.694;6.214;2023-03-01T06:03:40;26.60;;;23.88;;
57389;SDS011;43217;52.694;6.214;2023-03-01T06:06:06;26.08;;;23.58;;
57389;SDS011;43217;52.694;6.214;2023-03-01T06:08:31;26.40;;;23.90;;
57389;SDS011;43217;52.694;6.214;2023-03-01T06:10:57;27.50;;;24.70;;
57389;SDS011;43217;52.694;6.214;2023-03-01T06:13:23;25.58;;;23.08;;
57389;SDS011;43217;52.694;6.214;2023-03-01T06:15:49;25.33;;;22.92;;
57389;SDS011;43217;52.694;6.214;2023-03-01T06:18:14;25.30;;;22.80;;
57389;SDS011;43217;52.694;6.214;2023-03-01T06:20:40;25.17;;;22.77;;
57389;SDS011;43217;52.694;6.214;2023-03-01T06:23:06;25.27;;;22.77;;
57389;SDS011;43217;52.694;6.214;2023-03-01T06:25:32;24.63;;;22.23;;
57389;SDS011;43217;52.694;6.214;2023-03-01T06:27:57;25.67;;;23.08;;
57389;SDS011;43217;52.694;6.214;2023-03-01T06:30:23;25.35;;;22.95;;
57389;SDS011;43217;52.694;6.214;2023-03-01T06:32:50;24.17;;;21.77;;
57389;SDS011;43217;52.694;6.214;2023-03-01T06:35:17;25.83;;;23.38;;
57389;SDS011;43217;52.694;6.214;2023-03-01T06:37:44;26.63;;;24.13;;
57389;SDS011;43217;52.694;6.214;2023-03-01T06:40:10;26.08;;;23.48;;
57389;SDS011;43217;52.694;6.214;2023-03-01T06:42:38;27.25;;;24.45;;
57389;SDS011;43217;52.694;6.214;2023-03-01T06:45:06;27.85;;;25.13;;
57389;SDS011;43217;52.694;6.214;2023-03-01T06:47:32;27.45;;;24.75;;
57389;SDS011;43217;52.694;6.214;2023-03-01T06:49:59;28.58;;;25.73;;
57389;SDS011;43217;52.694;6.214;2023-03-01T06:52:25;28.33;;;25.52;;
57389;SDS011;43217;52.694;6.214;2023-03-01T06:54:51;27.30;;;24.40;;
57389;SDS011;43217;52.694;6.214;2023-03-01T06:57:16;27.40;;;24.80;;
57389;SDS011;43217;52.694;6.214;2023-03-01T06:59:42;28.00;;;25.13;;
57389;SDS011;43217;52.694;6.214;2023-03-01T07:02:11;29.17;;;26.25;;
57389;SDS011;43217;52.694;6.214;2023-03-01T07:04:38;28.15;;;25.35;;
57389;SDS011;43217;52.694;6.214;2023-03-01T07:07:04;27.17;;;24.48;;
57389;SDS011;43217;52.694;6.214;2023-03-01T07:09:30;28.02;;;25.20;;
57389;SDS011;43217;52.694;6.214;2023-03-01T07:11:56;27.40;;;24.60;;
57389;SDS011;43217;52.694;6.214;2023-03-01T07:14:22;27.63;;;24.77;;
57389;SDS011;43217;52.694;6.214;2023-03-01T07:16:50;26.95;;;24.17;;
57389;SDS011;43217;52.694;6.214;2023-03-01T07:19:20;29.52;;;26.50;;
57389;SDS011;43217;52.694;6.214;2023-03-01T07:21:46;29.13;;;26.17;;
57389;SDS011;43217;52.694;6.214;2023-03-01T07:24:12;29.23;;;26.17;;
57389;SDS011;43217;52.694;6.214;2023-03-01T07:26:38;30.80;;;27.58;;
57389;SDS011;43217;52.694;6.214;2023-03-01T07:29:04;29.92;;;26.73;;
57389;SDS011;43217;52.694;6.214;2023-03-01T07:31:31;30.17;;;26.90;;
57389;SDS011;43217;52.694;6.214;2023-03-01T07:33:57;30.42;;;27.17;;
57389;SDS011;43217;52.694;6.214;2023-03-01T07:36:23;29.70;;;26.55;;
57389;SDS011;43217;52.694;6.214;2023-03-01T07:38:49;31.55;;;28.13;;
57389;SDS011;43217;52.694;6.214;2023-03-01T07:41:15;32.50;;;28.80;;
57389;SDS011;43217;52.694;6.214;2023-03-01T07:43:40;32.63;;;28.98;;
57389;SDS011;43217;52.694;6.214;2023-03-01T07:46:06;31.05;;;27.67;;
57389;SDS011;43217;52.694;6.214;2023-03-01T07:48:32;35.35;;;31.58;;
57389;SDS011;43217;52.694;6.214;2023-03-01T07:51:02;35.75;;;30.85;;
57389;SDS011;43217;52.694;6.214;2023-03-01T07:53:29;34.10;;;30.40;;
57389;SDS011;43217;52.694;6.214;2023-03-01T07:56:00;42.28;;;33.47;;
57389;SDS011;43217;52.694;6.214;2023-03-01T07:58:36;41.45;;;32.92;;
57389;SDS011;43217;52.694;6.214;2023-03-01T08:01:04;40.20;;;34.78;;
57389;SDS011;43217;52.694;6.214;2023-03-01T08:03:31;44.45;;;35.42;;
57389;SDS011;43217;52.694;6.214;2023-03-01T08:06:04;44.90;;;37.00;;
57389;SDS011;43217;52.694;6.214;2023-03-01T08:08:31;43.80;;;36.05;;
57389;SDS011;43217;52.694;6.214;2023-03-01T08:10:57;44.72;;;35.42;;
57389;SDS011;43217;52.694;6.214;2023-03-01T08:13:24;46.72;;;37.65;;
57389;SDS011;43217;52.694;6.214;2023-03-01T08:15:50;45.50;;;36.53;;
57389;SDS011;43217;52.694;6.214;2023-03-01T08:18:16;50.25;;;40.00;;
57389;SDS011;43217;52.694;6.214;2023-03-01T08:20:43;52.28;;;40.35;;
57389;SDS011;43217;52.694;6.214;2023-03-01T08:23:09;50.88;;;39.38;;
57389;SDS011;43217;52.694;6.214;2023-03-01T08:25:34;49.13;;;38.33;;
57389;SDS011;43217;52.694;6.214;2023-03-01T08:28:00;45.40;;;37.85;;
57389;SDS011;43217;52.694;6.214;2023-03-01T08:30:26;44.65;;;37.58;;
57389;SDS011;43217;52.694;6.214;2023-03-01T08:32:51;45.10;;;36.47;;
57389;SDS011;43217;52.694;6.214;2023-03-01T08:35:17;40.97;;;36.03;;
57389;SDS011;43217;52.694;6.214;2023-03-01T08:37:44;42.10;;;35.08;;
57389;SDS011;43217;52.694;6.214;2023-03-01T08:40:10;43.22;;;35.22;;
57389;SDS011;43217;52.694;6.214;2023-03-01T08:42:38;40.30;;;34.35;;
57389;SDS011;43217;52.694;6.214;2023-03-01T08:45:05;42.65;;;33.78;;
57389;SDS011;43217;52.694;6.214;2023-03-01T08:47:32;40.88;;;33.45;;
57389;SDS011;43217;52.694;6.214;2023-03-01T08:50:00;37.70;;;32.40;;
57389;SDS011;43217;52.694;6.214;2023-03-01T08:52:27;35.88;;;31.27;;
57389;SDS011;43217;52.694;6.214;2023-03-01T08:54:52;35.40;;;31.08;;
57389;SDS011;43217;52.694;6.214;2023-03-01T08:57:18;34.60;;;30.05;;
57389;SDS011;43217;52.694;6.214;2023-03-01T08:59:44;38.80;;;31.85;;
57389;SDS011;43217;52.694;6.214;2023-03-01T09:02:14;36.97;;;31.80;;
57389;SDS011;43217;52.694;6.214;2023-03-01T09:04:42;35.83;;;30.48;;
57389;SDS011;43217;52.694;6.214;2023-03-01T09:07:07;36.58;;;29.95;;
57389;SDS011;43217;52.694;6.214;2023-03-01T09:09:34;31.42;;;26.90;;
57389;SDS011;43217;52.694;6.214;2023-03-01T09:12:00;31.17;;;27.58;;
57389;SDS011;43217;52.694;6.214;2023-03-01T09:14:26;29.55;;;25.55;;
57389;SDS011;43217;52.694;6.214;2023-03-01T09:16:52;29.20;;;26.05;;
57389;SDS011;43217;52.694;6.214;2023-03-01T09:19:18;28.52;;;25.30;;
57389;SDS011;43217;52.694;6.214;2023-03-01T09:21:43;27.08;;;24.17;;
57389;SDS011;43217;52.694;6.214;2023-03-01T09:24:17;26.50;;;23.70;;
57389;SDS011;43217;52.694;6.214;2023-03-01T09:26:47;24.35;;;21.55;;
57389;SDS011;43217;52.694;6.214;2023-03-01T09:29:13;23.92;;;20.67;;
57389;SDS011;43217;52.694;6.214;2023-03-01T09:31:39;21.83;;;19.50;;
57389;SDS011;43217;52.694;6.214;2023-03-01T09:34:06;20.35;;;17.25;;
57389;SDS011;43217;52.694;6.214;2023-03-01T09:36:32;18.02;;;16.17;;
57389;SDS011;43217;52.694;6.214;2023-03-01T09:38:58;15.75;;;13.93;;
57389;SDS011;43217;52.694;6.214;2023-03-01T09:46:49;15.88;;;14.18;;
57389;SDS011;43217;52.694;6.214;2023-03-01T09:49:21;14.20;;;12.73;;
57389;SDS011;43217;52.694;6.214;2023-03-01T09:51:57;13.93;;;12.20;;
57389;SDS011;43217;52.694;6.214;2023-03-01T09:54:44;14.48;;;13.02;;
57389;SDS011;43217;52.694;6.214;2023-03-01T09:57:15;12.15;;;10.80;;
57389;SDS011;43217;52.694;6.214;2023-03-01T09:59:49;13.13;;;11.32;;
57389;SDS011;43217;52.694;6.214;2023-03-01T10:05:15;11.20;;;8.70;;
57389;SDS011;43217;52.694;6.214;2023-03-01T10:10:23;8.15;;;7.35;;
57389;SDS011;43217;52.694;6.214;2023-03-01T10:12:56;9.10;;;7.78;;
57389;SDS011;43217;52.694;6.214;2023-03-01T10:15:31;8.40;;;7.07;;
57389;SDS011;43217;52.694;6.214;2023-03-01T10:18:04;7.93;;;7.13;;
57389;SDS011;43217;52.694;6.214;2023-03-01T10:20:46;7.30;;;6.60;;
57389;SDS011;43217;52.694;6.214;2023-03-01T10:23:17;7.43;;;6.72;;
57389;SDS011;43217;52.694;6.214;2023-03-01T10:28:31;10.07;;;7.55;;
57389;SDS011;43217;52.694;6.214;2023-03-01T10:31:31;7.82;;;7.10;;
57389;SDS011;43217;52.694;6.214;2023-03-01T10:34:29;8.85;;;6.57;;
57389;SDS011;43217;52.694;6.214;2023-03-01T10:36:58;7.10;;;6.40;;
57389;SDS011;43217;52.694;6.214;2023-03-01T10:53:26;10.02;;;6.10;;
57389;SDS011;43217;52.694;6.214;2023-03-01T10:55:58;6.28;;;5.68;;
57389;SDS011;43217;52.694;6.214;2023-03-01T10:58:27;7.38;;;5.93;;
57389;SDS011;43217;52.694;6.214;2023-03-01T11:03:30;7.22;;;5.53;;
57389;SDS011;43217;52.694;6.214;2023-03-01T11:08:31;6.13;;;5.63;;
57389;SDS011;43217;52.694;6.214;2023-03-01T11:11:06;7.15;;;5.88;;
57389;SDS011;43217;52.694;6.214;2023-03-01T11:13:33;6.53;;;5.82;;
57389;SDS011;43217;52.694;6.214;2023-03-01T11:18:31;6.07;;;5.40;;
57389;SDS011;43217;52.694;6.214;2023-03-01T11:20:58;7.57;;;5.63;;
57389;SDS011;43217;52.694;6.214;2023-03-01T11:23:25;6.38;;;5.75;;
57389;SDS011;43217;52.694;6.214;2023-03-01T11:26:01;6.65;;;5.60;;
57389;SDS011;43217;52.694;6.214;2023-03-01T11:28:31;7.25;;;5.57;;
57389;SDS011;43217;52.694;6.214;2023-03-01T11:38:30;8.63;;;6.53;;
57389;SDS011;43217;52.694;6.214;2023-03-01T11:43:44;7.53;;;5.95;;
57389;SDS011;43217;52.694;6.214;2023-03-01T11:57:49;8.85;;;6.88;;
57389;SDS011;43217;52.694;6.214;2023-03-01T12:06:09;8.90;;;7.82;;
57389;SDS011;43217;52.694;6.214;2023-03-01T12:12:16;10.32;;;8.55;;
57389;SDS011;43217;52.694;6.214;2023-03-01T12:28:06;8.65;;;7.13;;
57389;SDS011;43217;52.694;6.214;2023-03-01T12:38:41;7.30;;;6.60;;
57389;SDS011;43217;52.694;6.214;2023-03-01T12:41:28;8.30;;;6.80;;
57389;SDS011;43217;52.694;6.214;2023-03-01T12:46:37;6.65;;;5.75;;
57389;SDS011;43217;52.694;6.214;2023-03-01T12:49:11;9.63;;;6.97;;
57389;SDS011;43217;52.694;6.214;2023-03-01T12:51:42;7.90;;;7.10;;
57389;SDS011;43217;52.694;6.214;2023-03-01T12:54:20;7.35;;;6.55;;
57389;SDS011;43217;52.694;6.214;2023-03-01T12:56:53;8.23;;;7.05;;
57389;SDS011;43217;52.694;6.214;2023-03-01T12:59:28;10.45;;;7.15;;
57389;SDS011;43217;52.694;6.214;2023-03-01T13:02:10;8.50;;;7.13;;
57389;SDS011;43217;52.694;6.214;2023-03-01T13:04:43;7.70;;;6.82;;
57389;SDS011;43217;52.694;6.214;2023-03-01T13:07:25;7.93;;;6.50;;
57389;SDS011;43217;52.694;6.214;2023-03-01T13:13:11;8.00;;;7.20;;
57389;SDS011;43217;52.694;6.214;2023-03-01T13:15:39;8.10;;;7.35;;
57389;SDS011;43217;52.694;6.214;2023-03-01T13:18:38;8.00;;;7.20;;
57389;SDS011;43217;52.694;6.214;2023-03-01T13:20:59;7.85;;;7.05;;
57389;SDS011;43217;52.694;6.214;2023-03-01T13:23:36;7.32;;;6.55;;
57389;SDS011;43217;52.694;6.214;2023-03-01T13:26:14;8.45;;;7.63;;
57389;SDS011;43217;52.694;6.214;2023-03-01T13:31:11;8.82;;;7.97;;
57389;SDS011;43217;52.694;6.214;2023-03-01T13:33:55;8.05;;;7.25;;
57389;SDS011;43217;52.694;6.214;2023-03-01T13:46:56;9.20;;;7.50;;
57389;SDS011;43217;52.694;6.214;2023-03-01T13:49:34;8.57;;;7.47;;
57389;SDS011;43217;52.694;6.214;2023-03-01T13:52:13;8.00;;;7.20;;
57389;SDS011;43217;52.694;6.214;2023-03-01T13:55:24;8.20;;;7.35;;
57389;SDS011;43217;52.694;6.214;2023-03-01T13:58:03;7.85;;;6.72;;
57389;SDS011;43217;52.694;6.214;2023-03-01T14:00:38;8.52;;;7.63;;
57389;SDS011;43217;52.694;6.214;2023-03-01T14:05:39;8.23;;;7.40;;
57389;SDS011;43217;52.694;6.214;2023-03-01T14:08:20;9.32;;;8.40;;
57389;SDS011;43217;52.694;6.214;2023-03-01T14:19:23;8.95;;;8.02;;
57389;SDS011;43217;52.694;6.214;2023-03-01T14:24:28;8.02;;;7.22;;
57389;SDS011;43217;52.694;6.214;2023-03-01T14:26:55;8.60;;;7.70;;
57389;SDS011;43217;52.694;6.214;2023-03-01T14:29:32;8.60;;;7.70;;
57389;SDS011;43217;52.694;6.214;2023-03-01T14:32:20;10.40;;;7.50;;
57389;SDS011;43217;52.694;6.214;2023-03-01T14:34:49;8.90;;;8.00;;
57389;SDS011;43217;52.694;6.214;2023-03-01T14:37:29;9.52;;;8.25;;
57389;SDS011;43217;52.694;6.214;2023-03-01T14:39:57;9.00;;;7.82;;
57389;SDS011;43217;52.694;6.214;2023-03-01T14:42:27;9.32;;;8.30;;
57389;SDS011;43217;52.694;6.214;2023-03-01T14:44:56;10.23;;;8.38;;
57389;SDS011;43217;52.694;6.214;2023-03-01T14:47:32;9.00;;;8.10;;
57389;SDS011;43217;52.694;6.214;2023-03-01T14:50:05;10.02;;;7.72;;
57389;SDS011;43217;52.694;6.214;2023-03-01T14:52:47;10.27;;;8.07;;
57389;SDS011;43217;52.694;6.214;2023-03-01T14:55:17;9.68;;;8.07;;
57389;SDS011;43217;52.694;6.214;2023-03-01T14:57:45;8.80;;;7.90;;
57389;SDS011;43217;52.694;6.214;2023-03-01T15:00:16;8.55;;;7.75;;
57389;SDS011;43217;52.694;6.214;2023-03-01T15:02:46;9.20;;;7.60;;
57389;SDS011;43217;52.694;6.214;2023-03-01T15:05:13;8.93;;;7.95;;
57389;SDS011;43217;52.694;6.214;2023-03-01T15:07:41;8.77;;;7.63;;
57389;SDS011;43217;52.694;6.214;2023-03-01T15:10:33;8.38;;;7.57;;
57389;SDS011;43217;52.694;6.214;2023-03-01T15:13:11;10.52;;;8.25;;
57389;SDS011;43217;52.694;6.214;2023-03-01T15:15:38;9.57;;;8.43;;
57389;SDS011;43217;52.694;6.214;2023-03-01T15:18:18;9.02;;;8.13;;
57389;SDS011;43217;52.694;6.214;2023-03-01T15:20:50;10.50;;;9.02;;
57389;SDS011;43217;52.694;6.214;2023-03-01T15:23:24;9.48;;;8.23;;
57389;SDS011;43217;52.694;6.214;2023-03-01T15:25:52;9.20;;;7.85;;
57389;SDS011;43217;52.694;6.214;2023-03-01T15:28:23;10.75;;;8.90;;
57389;SDS011;43217;52.694;6.214;2023-03-01T15:30:55;9.23;;;8.32;;
57389;SDS011;43217;52.694;6.214;2023-03-01T15:38:29;11.40;;;10.20;;
57389;SDS011;43217;52.694;6.214;2023-03-01T15:40:56;11.57;;;10.10;;
57389;SDS011;43217;52.694;6.214;2023-03-01T15:46:18;13.75;;;10.48;;
57389;SDS011;43217;52.694;6.214;2023-03-01T15:48:48;10.40;;;9.13;;
57389;SDS011;43217;52.694;6.214;2023-03-01T15:51:17;12.27;;;10.30;;
57389;SDS011;43217;52.694;6.214;2023-03-01T15:53:49;11.15;;;9.40;;
57389;SDS011;43217;52.694;6.214;2023-03-01T15:56:18;10.90;;;9.32;;
57389;SDS011;43217;52.694;6.214;2023-03-01T15:58:44;10.82;;;9.68;;
57389;SDS011;43217;52.694;6.214;2023-03-01T16:01:13;12.25;;;9.80;;
57389;SDS011;43217;52.694;6.214;2023-03-01T16:03:41;11.07;;;9.75;;
57389;SDS011;43217;52.694;6.214;2023-03-01T16:06:09;11.05;;;9.90;;
57389;SDS011;43217;52.694;6.214;2023-03-01T16:11:02;11.38;;;9.50;;
57389;SDS011;43217;52.694;6.214;2023-03-01T16:13:30;11.27;;;9.55;;
57389;SDS011;43217;52.694;6.214;2023-03-01T16:15:57;9.93;;;8.93;;
57389;SDS011;43217;52.694;6.214;2023-03-01T16:18:23;11.50;;;9.63;;
57389;SDS011;43217;52.694;6.214;2023-03-01T16:20:49;12.32;;;9.55;;
57389;SDS011;43217;52.694;6.214;2023-03-01T16:23:14;11.35;;;10.15;;
57389;SDS011;43217;52.694;6.214;2023-03-01T16:25:40;11.25;;;9.50;;
57389;SDS011;43217;52.694;6.214;2023-03-01T16:28:06;13.05;;;10.00;;
57389;SDS011;43217;52.694;6.214;2023-03-01T16:30:36;13.38;;;10.88;;
57389;SDS011;43217;52.694;6.214;2023-03-01T16:33:03;15.38;;;11.68;;
57389;SDS011;43217;52.694;6.214;2023-03-01T16:35:32;16.30;;;10.73;;
57389;SDS011;43217;52.694;6.214;2023-03-01T16:37:59;13.43;;;10.13;;
57389;SDS011;43217;52.694;6.214;2023-03-01T16:40:25;12.45;;;10.32;;
57389;SDS011;43217;52.694;6.214;2023-03-01T16:42:52;13.88;;;10.77;;
57389;SDS011;43217;52.694;6.214;2023-03-01T16:45:18;11.68;;;10.35;;
57389;SDS011;43217;52.694;6.214;2023-03-01T16:47:44;12.50;;;10.75;;
57389;SDS011;43217;52.694;6.214;2023-03-01T16:50:10;12.07;;;10.55;;
57389;SDS011;43217;52.694;6.214;2023-03-01T16:52:36;11.02;;;9.90;;
57389;SDS011;43217;52.694;6.214;2023-03-01T16:55:03;13.93;;;11.65;;
57389;SDS011;43217;52.694;6.214;2023-03-01T16:57:30;13.02;;;10.93;;